Terminal Aerodrome Forecast
Issued by NWS North Platte, NE

Home | Current Version | Previous Version | Text Only | Print | Product List | Glossary Off
Versions: 1 2 3 4 5 6 7 8 9 10 11 12 13 14 15 16 17 18 19 20 21 22 23 24 25 26 27 28 29 30 31 32 33 34

000
FTUS43 KLBF 011100
TAFVTN
TAF
KVTN 011130Z 0112/0212 29008KT P6SM SCT010
      TEMPO 0112/0114 5SM BR BKN030
     FM012100 34007KT P6SM BKN100 PROB30 0122/0202 5SM -TSRA
      BKN050CB
     FM020600 VRB04KT P6SM SKC=

USA.gov is the U.S. government's official web portal to all federal, state and local government web resources and services.